Time;durP1;ratioP1;P1;durP2;ratioP2;P2;SDS_P1;SDS_P2;PMS_P1;PMS_P2;Temp;Humidity;BMP_temperature;BMP_pressure;BME280_temperature;BME280_humidity;BME280_pressure;Samples;Min_cycle;Max_cycle;Signal;HPM_P1;HPM_P2
2021/09/11 00:02:27;;;;;;;12.05;7.38;;;23.10;71.80;;;;;;5122299;28;20535;-64
2021/09/11 00:05:00;;;;;;;12.07;7.68;;;23.10;71.80;;;;;;5119570;28;20602;-63
2021/09/11 00:07:33;;;;;;;11.30;7.32;;;23.10;71.80;;;;;;5125543;28;20381;-64
2021/09/11 00:10:07;;;;;;;9.77;7.45;;;23.10;71.90;;;;;;5127953;28;20054;-64
2021/09/11 00:12:40;;;;;;;13.07;8.00;;;23.10;72.00;;;;;;5132779;28;20046;-64
2021/09/11 00:15:14;;;;;;;16.15;8.77;;;23.10;72.00;;;;;;5131741;28;20047;-64
2021/09/11 00:17:47;;;;;;;11.65;7.78;;;23.10;72.00;;;;;;5130118;28;20047;-64
2021/09/11 00:20:20;;;;;;;14.20;8.48;;;23.00;72.00;;;;;;5127685;28;20047;-64
2021/09/11 00:22:52;;;;;;;10.40;8.40;;;23.00;72.10;;;;;;5125109;28;20077;-64
2021/09/11 00:25:25;;;;;;;10.10;8.82;;;23.00;72.10;;;;;;5130265;28;20050;-64
2021/09/11 00:27:59;;;;;;;14.10;8.63;;;23.00;72.10;;;;;;5128301;28;20066;-64
2021/09/11 00:30:32;;;;;;;10.20;8.82;;;23.00;72.20;;;;;;5128452;28;20513;-64
2021/09/11 00:33:04;;;;;;;11.57;8.25;;;23.00;72.90;;;;;;5131576;28;20641;-63
2021/09/11 00:35:37;;;;;;;13.07;8.98;;;23.00;72.20;;;;;;5118538;28;20057;-64
2021/09/11 00:38:09;;;;;;;11.40;8.70;;;23.00;72.30;;;;;;5129418;28;20047;-64
2021/09/11 00:40:42;;;;;;;10.85;8.93;;;23.00;72.40;;;;;;5128654;28;20055;-63
2021/09/11 00:43:23;;;;;;;13.35;9.00;;;23.00;72.50;;;;;;5131895;28;20069;-64
2021/09/11 00:45:56;;;;;;;11.70;9.60;;;23.00;72.50;;;;;;5130782;28;20832;-64
2021/09/11 00:48:28;;;;;;;14.23;9.75;;;23.00;72.60;;;;;;5129326;28;20039;-64
2021/09/11 00:51:01;;;;;;;11.30;9.32;;;23.00;72.70;;;;;;5127210;28;20062;-64
2021/09/11 00:53:34;;;;;;;14.55;9.27;;;23.00;72.80;;;;;;5129460;28;20047;-63
2021/09/11 00:56:07;;;;;;;15.10;9.68;;;23.00;72.90;;;;;;5129023;28;20419;-64
2021/09/11 00:58:40;;;;;;;11.88;9.77;;;23.00;73.00;;;;;;5109447;28;20059;-64
2021/09/11 01:01:12;;;;;;;15.67;9.57;;;23.00;73.10;;;;;;5126082;28;20472;-63
2021/09/11 01:03:45;;;;;;;13.75;9.88;;;23.00;73.30;;;;;;5128821;28;20518;-64
2021/09/11 01:06:19;;;;;;;18.15;10.15;;;23.00;73.50;;;;;;5129538;28;20054;-64
2021/09/11 01:08:53;;;;;;;12.38;10.05;;;23.00;73.60;;;;;;5130247;28;20050;-63
2021/09/11 01:11:25;;;;;;;11.55;10.05;;;23.00;73.70;;;;;;5132470;28;20062;-64
2021/09/11 01:13:58;;;;;;;13.00;10.23;;;23.00;73.90;;;;;;5128997;28;20055;-63
2021/09/11 01:16:34;;;;;;;12.55;10.15;;;23.00;74.00;;;;;;5123562;28;20049;-64
2021/09/11 01:19:06;;;;;;;13.95;10.48;;;23.00;74.10;;;;;;5130955;28;20420;-64
2021/09/11 01:21:40;;;;;;;12.52;10.23;;;23.00;74.30;;;;;;5130967;28;20053;-64
2021/09/11 01:24:12;;;;;;;16.55;11.10;;;23.00;74.30;;;;;;5135891;28;20065;-63
2021/09/11 01:26:50;;;;;;;12.52;10.43;;;23.00;74.50;;;;;;5130916;28;20926;-64
2021/09/11 01:29:23;;;;;;;14.95;11.65;;;23.00;74.60;;;;;;5137932;28;20050;-64
2021/09/11 01:31:55;;;;;;;13.50;9.85;;;23.00;74.70;;;;;;5131896;28;24832;-63
2021/09/11 01:34:30;;;;;;;14.52;10.95;;;23.00;74.80;;;;;;5134026;28;20051;-63
2021/09/11 01:37:09;;;;;;;15.73;11.27;;;23.00;74.80;;;;;;5136066;28;20055;-64
2021/09/11 01:39:41;;;;;;;14.05;11.38;;;23.00;75.00;;;;;;5134368;28;20050;-64
2021/09/11 01:42:24;;;;;;;16.77;11.65;;;22.90;75.00;;;;;;5135819;28;20504;-64
2021/09/11 01:44:58;;;;;;;14.75;11.48;;;23.00;75.20;;;;;;5135794;28;20058;-64
2021/09/11 01:47:31;;;;;;;16.98;11.70;;;22.90;75.20;;;;;;5137229;28;20628;-64
2021/09/11 01:50:05;;;;;;;14.35;11.68;;;22.90;75.30;;;;;;5134752;28;20451;-64
2021/09/11 01:52:37;;;;;;;16.00;11.77;;;22.90;75.40;;;;;;5132083;28;20151;-64
2021/09/11 01:55:12;;;;;;;16.50;11.57;;;22.90;75.40;;;;;;5132876;28;20558;-64
2021/09/11 01:57:46;;;;;;;14.63;11.10;;;22.90;75.50;;;;;;5134587;28;20302;-64
2021/09/11 02:00:19;;;;;;;15.85;11.50;;;22.90;75.60;;;;;;5132099;28;20051;-64
2021/09/11 02:02:52;;;;;;;16.55;11.63;;;23.00;75.80;;;;;;5131797;28;20043;-63
2021/09/11 02:05:25;;;;;;;18.45;11.65;;;22.90;75.80;;;;;;5134668;28;20073;-64
2021/09/11 02:07:57;;;;;;;14.45;11.88;;;22.90;75.90;;;;;;5131915;28;20347;-64
2021/09/11 02:10:30;;;;;;;18.38;12.80;;;22.90;75.90;;;;;;5131783;28;20050;-63
2021/09/11 02:13:02;;;;;;;15.90;11.27;;;22.90;76.00;;;;;;5133396;28;20062;-63
2021/09/11 02:15:35;;;;;;;18.63;12.63;;;22.90;76.10;;;;;;5133284;28;20143;-63
2021/09/11 02:18:07;;;;;;;20.85;11.32;;;22.90;76.10;;;;;;5133716;28;20055;-63
2021/09/11 02:20:40;;;;;;;14.73;11.40;;;22.90;76.10;;;;;;5128919;28;20412;-63
2021/09/11 02:23:12;;;;;;;17.38;12.65;;;22.90;76.20;;;;;;5132126;28;20050;-63
2021/09/11 02:25:44;;;;;;;15.05;12.45;;;22.90;76.30;;;;;;5130913;28;20049;-63
2021/09/11 02:28:17;;;;;;;14.85;12.10;;;22.90;76.30;;;;;;5132553;28;20057;-64
2021/09/11 02:30:49;;;;;;;15.33;11.77;;;22.90;76.40;;;;;;5131237;28;20196;-64
2021/09/11 02:33:22;;;;;;;13.93;11.48;;;22.90;76.40;;;;;;5130226;28;20050;-64
2021/09/11 02:35:54;;;;;;;13.98;11.38;;;22.90;76.50;;;;;;5132977;28;20062;-64
2021/09/11 02:38:27;;;;;;;17.95;12.35;;;22.90;76.50;;;;;;5131852;28;20059;-64
2021/09/11 02:40:59;;;;;;;16.70;11.68;;;22.90;76.50;;;;;;5130885;28;20062;-63
2021/09/11 02:43:32;;;;;;;15.30;11.90;;;22.90;76.50;;;;;;5129729;28;20058;-63
2021/09/11 02:46:04;;;;;;;15.18;11.75;;;22.90;76.00;;;;;;5132786;28;20384;-63
2021/09/11 02:48:37;;;;;;;12.60;10.48;;;22.90;76.50;;;;;;5134924;28;20066;-64
2021/09/11 02:51:10;;;;;;;13.05;10.65;;;22.90;76.50;;;;;;5137311;28;20046;-63
2021/09/11 02:53:42;;;;;;;13.35;10.10;;;22.90;76.50;;;;;;5133871;28;20054;-63
2021/09/11 02:56:15;;;;;;;14.05;10.85;;;22.90;76.60;;;;;;5132730;28;20051;-63
2021/09/11 02:58:47;;;;;;;19.85;10.73;;;22.90;76.60;;;;;;5129452;28;20526;-64
2021/09/11 03:01:20;;;;;;;14.30;10.40;;;22.90;76.50;;;;;;5132331;28;20050;-64
2021/09/11 03:03:53;;;;;;;10.90;9.10;;;22.90;76.40;;;;;;5130033;28;20096;-64
2021/09/11 03:06:25;;;;;;;12.02;9.55;;;22.90;76.40;;;;;;5131441;28;20061;-64
2021/09/11 03:08:58;;;;;;;10.07;8.35;;;22.90;76.40;;;;;;5130636;28;20055;-63
2021/09/11 03:11:30;;;;;;;12.75;8.38;;;22.90;76.30;;;;;;5130213;28;20077;-64
2021/09/11 03:14:02;;;;;;;11.70;8.90;;;22.80;76.30;;;;;;5129905;28;20062;-63
2021/09/11 03:16:35;;;;;;;12.07;8.52;;;22.90;76.30;;;;;;5124573;28;20051;-64
2021/09/11 03:19:07;;;;;;;11.10;7.95;;;22.80;76.30;;;;;;5132246;28;20309;-64
2021/09/11 03:21:39;;;;;;;11.80;9.05;;;22.80;76.20;;;;;;5130037;28;20049;-64
2021/09/11 03:24:12;;;;;;;11.02;8.60;;;22.80;76.20;;;;;;5129001;28;20055;-64
2021/09/11 03:26:44;;;;;;;11.00;8.35;;;22.80;76.20;;;;;;5130340;28;20058;-64
2021/09/11 03:29:17;;;;;;;10.57;7.40;;;22.80;76.20;;;;;;5127725;28;20039;-64
2021/09/11 03:31:49;;;;;;;13.60;8.02;;;22.80;76.20;;;;;;5129359;28;20073;-63
2021/09/11 03:34:21;;;;;;;12.52;7.75;;;22.80;76.20;;;;;;5128897;28;20046;-63
2021/09/11 03:36:54;;;;;;;10.48;7.70;;;22.80;76.20;;;;;;5132287;28;20477;-63
2021/09/11 03:39:26;;;;;;;13.13;8.67;;;22.80;76.30;;;;;;5133960;28;20055;-63
2021/09/11 03:41:59;;;;;;;11.15;8.23;;;22.80;76.30;;;;;;5130501;28;20067;-64
2021/09/11 03:44:31;;;;;;;12.77;7.80;;;22.80;76.30;;;;;;5129872;28;20050;-64
2021/09/11 03:47:04;;;;;;;11.45;7.78;;;22.80;76.40;;;;;;5127637;28;20439;-64
2021/09/11 03:49:36;;;;;;;11.77;8.50;;;22.80;76.40;;;;;;5126195;28;20051;-63
2021/09/11 03:52:09;;;;;;;11.55;7.78;;;22.80;76.40;;;;;;5130804;28;20051;-63
2021/09/11 03:54:41;;;;;;;11.30;7.75;;;22.80;76.40;;;;;;5127019;28;20324;-64
2021/09/11 03:57:14;;;;;;;9.98;7.35;;;22.80;76.50;;;;;;5129622;28;20057;-64
2021/09/11 03:59:46;;;;;;;8.35;7.45;;;22.80;76.50;;;;;;5125205;28;20059;-64
2021/09/11 04:02:19;;;;;;;10.27;7.83;;;22.80;76.40;;;;;;5131653;28;20035;-63
2021/09/11 04:04:51;;;;;;;10.67;7.60;;;22.80;76.50;;;;;;5128058;28;20302;-64
2021/09/11 04:07:24;;;;;;;12.20;8.05;;;22.80;76.30;;;;;;5121051;28;20290;-64
2021/09/11 04:09:56;;;;;;;14.25;8.32;;;22.80;76.30;;;;;;5106406;28;20038;-64
2021/09/11 04:12:29;;;;;;;16.98;8.35;;;22.80;76.30;;;;;;5114365;28;20055;-64
2021/09/11 04:15:01;;;;;;;19.08;8.50;;;22.90;76.40;;;;;;5117014;28;20054;-64
2021/09/11 04:17:34;;;;;;;10.93;7.70;;;22.80;76.50;;;;;;5121112;28;20055;-64
2021/09/11 04:20:07;;;;;;;11.80;8.13;;;22.90;76.50;;;;;;5129309;28;20051;-64
2021/09/11 04:22:39;;;;;;;14.63;7.68;;;22.90;76.50;;;;;;5141576;28;20113;-64
2021/09/11 04:25:11;;;;;;;18.80;7.88;;;22.90;76.60;;;;;;5128197;28;20526;-64
2021/09/11 04:27:44;;;;;;;14.50;9.13;;;22.90;76.50;;;;;;5120037;28;20548;-64
2021/09/11 04:30:16;;;;;;;13.40;7.93;;;22.90;76.40;;;;;;5121823;28;20051;-64
2021/09/11 04:32:49;;;;;;;15.40;8.07;;;22.90;76.40;;;;;;5122378;28;20047;-64
2021/09/11 04:35:22;;;;;;;17.35;7.35;;;22.90;76.40;;;;;;5124068;28;20043;-64
2021/09/11 04:37:54;;;;;;;18.30;8.47;;;22.90;76.40;;;;;;5121869;28;20767;-64
2021/09/11 04:40:27;;;;;;;15.73;8.15;;;22.90;76.40;;;;;;5127996;28;20062;-64
2021/09/11 04:42:59;;;;;;;13.27;7.38;;;22.90;76.60;;;;;;5126228;28;20535;-64
2021/09/11 04:45:32;;;;;;;17.40;8.63;;;22.90;76.40;;;;;;5123418;28;20512;-64
2021/09/11 04:48:04;;;;;;;19.60;8.05;;;22.90;76.40;;;;;;5123710;28;20039;-63
2021/09/11 04:50:37;;;;;;;22.88;8.95;;;22.90;76.60;;;;;;5124455;28;20054;-63
2021/09/11 04:53:09;;;;;;;19.33;8.03;;;22.90;76.60;;;;;;5127632;28;20518;-64
2021/09/11 04:55:42;;;;;;;17.85;8.13;;;22.90;76.60;;;;;;5129658;28;20051;-64
2021/09/11 04:58:15;;;;;;;14.80;8.13;;;22.90;76.60;;;;;;5123647;28;20812;-63
2021/09/11 05:00:47;;;;;;;14.20;7.47;;;22.90;76.70;;;;;;5111861;28;20052;-64
2021/09/11 05:03:20;;;;;;;20.93;8.73;;;22.90;76.70;;;;;;5134619;28;20043;-64
2021/09/11 05:05:54;;;;;;;23.02;8.02;;;23.00;76.70;;;;;;5137504;28;20416;-64
2021/09/11 05:08:27;;;;;;;20.73;8.57;;;23.00;76.70;;;;;;5132942;28;20050;-64
2021/09/11 05:10:59;;;;;;;18.15;7.57;;;23.00;76.70;;;;;;5152330;28;20061;-63
2021/09/11 05:13:32;;;;;;;15.55;8.40;;;23.00;76.80;;;;;;5139147;28;20050;-63
2021/09/11 05:16:04;;;;;;;15.55;7.90;;;23.00;76.80;;;;;;5136140;28;20058;-63
2021/09/11 05:18:37;;;;;;;13.93;7.75;;;23.00;76.80;;;;;;5135264;28;20058;-64
2021/09/11 05:21:09;;;;;;;18.47;7.93;;;23.00;76.70;;;;;;5133632;28;20050;-64
2021/09/11 05:23:42;;;;;;;19.35;7.40;;;23.00;76.70;;;;;;5133507;28;20055;-64
2021/09/11 05:26:15;;;;;;;13.48;7.88;;;23.00;76.70;;;;;;5131342;28;20047;-64
2021/09/11 05:28:47;;;;;;;14.65;8.30;;;23.00;76.70;;;;;;5131592;28;20136;-64
2021/09/11 05:31:20;;;;;;;17.38;8.02;;;23.00;76.70;;;;;;5129092;28;20496;-63
2021/09/11 05:33:52;;;;;;;13.90;7.90;;;23.00;76.70;;;;;;5177922;22;20057;-76
2021/09/11 05:36:25;;;;;;;15.18;7.25;;;23.00;76.70;;;;;;5172670;28;21414;-76
2021/09/11 05:38:57;;;;;;;15.40;7.28;;;23.00;76.80;;;;;;5170961;28;20045;-76
2021/09/11 05:41:30;;;;;;;16.20;8.20;;;23.00;76.70;;;;;;5176852;28;20073;-75
2021/09/11 05:44:02;;;;;;;13.60;7.50;;;23.00;76.70;;;;;;5169351;28;20053;-76
2021/09/11 05:46:35;;;;;;;17.30;7.95;;;23.00;76.70;;;;;;5168373;28;20050;-76
2021/09/11 05:49:07;;;;;;;16.37;7.17;;;23.00;76.70;;;;;;5168874;28;20077;-76
2021/09/11 05:51:40;;;;;;;15.50;7.97;;;23.00;76.70;;;;;;5165246;28;20038;-76
2021/09/11 05:54:12;;;;;;;13.05;7.13;;;23.00;76.70;;;;;;5169145;28;20384;-75
2021/09/11 05:56:45;;;;;;;15.10;7.68;;;23.00;76.70;;;;;;5171587;28;20045;-75
2021/09/11 05:59:17;;;;;;;10.30;7.23;;;23.00;76.70;;;;;;5148560;28;20514;-75
2021/09/11 06:01:49;;;;;;;16.00;7.97;;;23.00;76.70;;;;;;5150156;28;20042;-76
2021/09/11 06:04:22;;;;;;;24.40;8.50;;;22.90;76.70;;;;;;5166996;28;20057;-76
2021/09/11 06:06:55;;;;;;;18.48;7.55;;;23.00;76.80;;;;;;5169541;28;20604;-76
2021/09/11 06:09:27;;;;;;;19.73;8.18;;;23.00;76.80;;;;;;5168935;28;20057;-76
2021/09/11 06:11:59;;;;;;;17.95;7.40;;;23.00;76.90;;;;;;5165762;28;20053;-74
2021/09/11 06:14:32;;;;;;;21.98;7.68;;;23.00;76.90;;;;;;5167315;28;20518;-76
2021/09/11 06:17:05;;;;;;;16.90;8.23;;;23.00;77.10;;;;;;5168771;28;20049;-76
2021/09/11 06:19:38;;;;;;;18.90;7.60;;;23.00;77.10;;;;;;5165183;28;20041;-76
2021/09/11 06:22:10;;;;;;;20.60;8.80;;;23.00;77.10;;;;;;5163673;28;20065;-76
2021/09/11 06:24:43;;;;;;;20.33;8.00;;;23.00;77.10;;;;;;5168154;28;20042;-76
2021/09/11 06:27:18;;;;;;;19.38;8.43;;;23.00;77.00;;;;;;5162059;28;20042;-75
2021/09/11 06:29:50;;;;;;;13.82;7.47;;;23.00;77.10;;;;;;5151365;28;20045;-75
2021/09/11 06:32:22;;;;;;;20.92;7.68;;;23.00;77.10;;;;;;5136451;28;20076;-75
2021/09/11 06:34:55;;;;;;;16.67;7.22;;;23.00;77.10;;;;;;5154994;28;20492;-76
2021/09/11 06:37:27;;;;;;;20.55;7.32;;;23.00;77.10;;;;;;5158867;28;20438;-76
2021/09/11 06:40:00;;;;;;;14.73;7.97;;;23.00;77.00;;;;;;5154745;28;20073;-76
2021/09/11 06:42:32;;;;;;;16.73;8.18;;;23.00;77.10;;;;;;5152261;28;20046;-75
2021/09/11 06:45:06;;;;;;;16.83;8.00;;;23.00;77.10;;;;;;5157821;28;20064;-76
2021/09/11 06:47:38;;;;;;;15.75;7.63;;;23.00;77.10;;;;;;5162506;28;20042;-75
2021/09/11 06:50:11;;;;;;;13.93;7.78;;;23.00;77.10;;;;;;5158401;28;20074;-76
2021/09/11 06:52:44;;;;;;;13.82;6.88;;;23.00;77.20;;;;;;5141177;28;20787;-74
2021/09/11 06:55:16;;;;;;;16.55;7.55;;;23.00;77.10;;;;;;5158448;28;20515;-76
2021/09/11 06:57:48;;;;;;;19.10;6.85;;;23.00;77.10;;;;;;5159537;28;20061;-75
2021/09/11 07:00:21;;;;;;;16.15;7.18;;;23.00;77.10;;;;;;5155366;28;20042;-76
2021/09/11 07:02:56;;;;;;;18.08;7.25;;;23.00;77.20;;;;;;5155379;28;20423;-75
2021/09/11 07:05:30;;;;;;;15.25;7.07;;;23.00;77.20;;;;;;5135672;28;20073;-76
2021/09/11 07:08:02;;;;;;;17.27;7.97;;;23.00;77.30;;;;;;5131872;28;20050;-75
2021/09/11 07:10:35;;;;;;;22.83;8.05;;;23.00;77.30;;;;;;5116736;28;20109;-75
2021/09/11 07:13:07;;;;;;;13.20;7.13;;;23.00;77.30;;;;;;5154313;28;20202;-74
2021/09/11 07:15:39;;;;;;;14.48;7.30;;;23.00;77.50;;;;;;5140538;28;20053;-73
2021/09/11 07:18:12;;;;;;;14.73;7.03;;;23.00;77.50;;;;;;5143484;28;20053;-76
2021/09/11 07:20:44;;;;;;;14.20;7.22;;;23.00;77.50;;;;;;5140063;28;21279;-76
2021/09/11 07:23:17;;;;;;;15.55;7.07;;;23.00;77.50;;;;;;5158058;28;20046;-76
2021/09/11 07:25:49;;;;;;;16.52;7.13;;;23.00;77.40;;;;;;5152804;28;20065;-76
2021/09/11 07:28:21;;;;;;;13.95;6.90;;;23.00;77.50;;;;;;5157932;28;20905;-76
2021/09/11 07:30:54;;;;;;;14.13;7.15;;;23.00;77.60;;;;;;5154885;28;20053;-76
2021/09/11 07:33:26;;;;;;;14.52;7.30;;;23.00;77.50;;;;;;5146234;28;20057;-76
2021/09/11 07:35:59;;;;;;;15.48;6.55;;;23.00;77.50;;;;;;5151905;28;20050;-76
2021/09/11 07:38:31;;;;;;;18.50;7.47;;;23.00;77.50;;;;;;5150778;28;20061;-76
2021/09/11 07:41:04;;;;;;;15.75;7.65;;;23.00;77.60;;;;;;5152332;28;20054;-76
2021/09/11 07:43:36;;;;;;;13.70;6.78;;;23.00;77.60;;;;;;5158493;28;20053;-76
2021/09/11 07:46:09;;;;;;;13.90;6.28;;;23.00;77.50;;;;;;5140862;28;20399;-76
2021/09/11 07:48:41;;;;;;;13.33;7.37;;;23.00;77.40;;;;;;5141100;28;20053;-75
2021/09/11 07:51:14;;;;;;;13.65;7.57;;;23.00;77.40;;;;;;5155286;28;20321;-75
2021/09/11 07:53:46;;;;;;;18.02;6.55;;;23.00;77.60;;;;;;5156805;28;20060;-75
2021/09/11 07:56:19;;;;;;;17.80;7.45;;;23.00;77.50;;;;;;5154659;28;20053;-75
2021/09/11 07:58:52;;;;;;;20.40;7.38;;;23.00;77.60;;;;;;5161283;28;20045;-75
2021/09/11 08:01:24;;;;;;;28.38;7.63;;;23.00;77.60;;;;;;5144130;28;20054;-75
2021/09/11 08:03:57;;;;;;;21.77;7.28;;;23.00;77.60;;;;;;5139787;28;21425;-75
2021/09/11 08:06:30;;;;;;;24.05;7.35;;;23.00;77.60;;;;;;5159200;28;20514;-75
2021/09/11 08:09:02;;;;;;;27.20;8.73;;;23.00;77.70;;;;;;5136365;28;20053;-75
2021/09/11 08:11:34;;;;;;;27.15;8.25;;;23.00;77.90;;;;;;5165371;28;20046;-76
2021/09/11 08:14:07;;;;;;;23.60;7.75;;;23.00;77.90;;;;;;5159509;28;20251;-76
2021/09/11 08:16:39;;;;;;;21.50;7.85;;;23.00;77.90;;;;;;5142832;28;20050;-76
2021/09/11 08:19:12;;;;;;;25.90;8.73;;;23.00;77.90;;;;;;5162584;28;20049;-75
2021/09/11 08:21:44;;;;;;;23.27;8.68;;;23.10;78.00;;;;;;5157269;28;20050;-76
2021/09/11 08:24:16;;;;;;;22.08;8.13;;;23.10;78.20;;;;;;5165787;28;20076;-76
2021/09/11 08:26:49;;;;;;;28.08;8.80;;;23.10;78.10;;;;;;5152549;28;20034;-76
2021/09/11 08:29:21;;;;;;;25.13;7.70;;;23.10;78.20;;;;;;5133001;28;20051;-75
2021/09/11 08:31:54;;;;;;;22.77;7.30;;;23.10;78.10;;;;;;5145154;28;20388;-76
2021/09/11 08:34:26;;;;;;;20.30;8.07;;;23.10;78.20;;;;;;5152984;28;20064;-75
2021/09/11 08:36:59;;;;;;;30.90;8.10;;;23.10;78.30;;;;;;5122391;28;20046;-75
2021/09/11 08:39:32;;;;;;;31.85;8.52;;;23.10;78.30;;;;;;5148359;28;20060;-74
2021/09/11 08:42:04;;;;;;;26.40;7.95;;;23.00;78.30;;;;;;5151524;28;20046;-74
2021/09/11 08:44:37;;;;;;;32.95;9.15;;;23.10;78.50;;;;;;5141285;28;20047;-70
2021/09/11 08:47:10;;;;;;;24.88;8.10;;;23.10;78.50;;;;;;5149336;28;20439;-75
2021/09/11 08:49:43;;;;;;;31.38;8.65;;;23.10;78.50;;;;;;5158880;28;20037;-75
2021/09/11 08:52:15;;;;;;;25.23;8.13;;;23.10;78.60;;;;;;5144997;28;20057;-75
2021/09/11 08:54:48;;;;;;;38.50;8.47;;;23.10;78.50;;;;;;5154415;28;20049;-74
2021/09/11 08:57:25;;;;;;;22.50;7.80;;;23.10;78.40;;;;;;5157860;28;20054;-75
2021/09/11 08:59:57;;;;;;;29.52;8.18;;;23.10;78.40;;;;;;5158795;28;20052;-74
2021/09/11 09:02:30;;;;;;;27.25;8.40;;;23.10;78.30;;;;;;5161891;28;20057;-75
2021/09/11 09:05:04;;;;;;;26.05;7.85;;;23.10;78.20;;;;;;5129621;28;20671;-74
2021/09/11 09:07:39;;;;;;;26.70;7.90;;;23.10;78.10;;;;;;5132485;28;20042;-75
2021/09/11 09:10:13;;;;;;;21.35;8.18;;;23.10;78.00;;;;;;5133815;28;20045;-75
2021/09/11 09:12:49;;;;;;;18.08;6.97;;;23.10;77.90;;;;;;5134173;28;20045;-74
2021/09/11 09:15:24;;;;;;;14.73;7.68;;;23.10;77.80;;;;;;5157773;28;20061;-74
2021/09/11 09:18:02;;;;;;;18.85;8.20;;;23.10;77.80;;;;;;5160559;28;20130;-73
2021/09/11 09:20:34;;;;;;;;;;;23.10;77.70;;;;;;5163460;28;20050;-73
2021/09/11 09:23:07;;;;;;;17.42;7.10;;;23.00;77.50;;;;;;5159996;28;19929;-74
2021/09/11 09:25:40;;;;;;;21.38;7.80;;;23.10;77.60;;;;;;5153783;28;20070;-74
2021/09/11 09:28:14;;;;;;;13.95;7.70;;;23.10;77.50;;;;;;5166220;28;20507;-73
2021/09/11 09:30:48;;;;;;;18.33;8.20;;;23.10;77.40;;;;;;5162062;28;20050;-73
2021/09/11 09:33:25;;;;;;;16.55;7.80;;;23.10;77.20;;;;;;5165535;28;20391;-74
2021/09/11 09:36:01;;;;;;;13.75;7.97;;;23.10;77.10;;;;;;5161903;28;20447;-75
2021/09/11 09:38:34;;;;;;;15.57;7.88;;;23.10;77.00;;;;;;5163182;28;20042;-74
2021/09/11 09:41:10;;;;;;;17.33;8.23;;;23.10;77.00;;;;;;5167276;28;25472;-74
2021/09/11 09:43:44;;;;;;;16.17;7.68;;;23.10;77.00;;;;;;5165628;28;20583;-75
2021/09/11 09:46:19;;;;;;;13.90;7.03;;;23.10;76.90;;;;;;5159352;28;20050;-74
2021/09/11 09:48:59;;;;;;;16.20;8.20;;;23.10;76.90;;;;;;5168168;28;20049;-74
2021/09/11 09:51:32;;;;;;;16.02;8.23;;;23.10;77.00;;;;;;5168611;28;20061;-74
2021/09/11 09:54:05;;;;;;;13.30;6.95;;;23.10;77.10;;;;;;5164676;28;20046;-74
2021/09/11 09:56:37;;;;;;;12.13;7.70;;;23.10;77.20;;;;;;5166804;28;20058;-74
2021/09/11 09:59:11;;;;;;;16.00;7.95;;;23.10;77.10;;;;;;5165359;28;20042;-74
2021/09/11 10:01:44;;;;;;;12.50;7.28;;;23.10;77.20;;;;;;5134685;28;20046;-73
2021/09/11 10:04:20;;;;;;;13.00;7.28;;;23.10;77.30;;;;;;5166099;28;20054;-74
2021/09/11 10:07:11;;;;;;;14.43;7.63;;;23.10;77.40;;;;;;5147420;28;20460;-74
2021/09/11 10:09:47;;;;;;;19.88;8.38;;;23.10;77.30;;;;;;5167041;28;20057;-74
2021/09/11 10:12:34;;;;;;;27.50;7.47;;;23.10;77.50;;;;;;5162512;28;20145;-74
2021/09/11 10:15:27;;;;;;;14.18;7.43;;;23.10;77.60;;;;;;5166771;28;20079;-74
2021/09/11 10:17:59;;;;;;;20.95;8.85;;;23.10;77.60;;;;;;5169117;28;20046;-74
2021/09/11 10:21:11;;;;;;;14.77;7.40;;;23.10;77.70;;;;;;5163562;28;20053;-73
2021/09/11 10:24:06;;;;;;;18.17;7.22;;;23.10;77.70;;;;;;5162509;28;20050;-74
2021/09/11 10:26:47;;;;;;;16.23;7.32;;;23.10;77.70;;;;;;5156647;28;20042;-74
2021/09/11 10:29:34;;;;;;;28.15;8.02;;;23.10;78.00;;;;;;5147787;28;20073;-73
2021/09/11 10:32:07;;;;;;;24.17;7.75;;;23.10;77.90;;;;;;5162682;28;20053;-74
2021/09/11 10:34:50;;;;;;;24.15;8.32;;;23.20;78.10;;;;;;5153160;28;20057;-73
2021/09/11 10:37:37;;;;;;;17.92;7.55;;;23.20;78.00;;;;;;5166063;28;20058;-73
2021/09/11 10:40:36;;;;;;;20.33;7.75;;;23.20;77.80;;;;;;5160205;28;20042;-73
2021/09/11 10:43:24;;;;;;;20.40;7.45;;;23.20;77.90;;;;;;5161113;28;20061;-73
2021/09/11 10:46:02;;;;;;;18.55;7.90;;;23.30;78.00;;;;;;5167901;28;20045;-74
2021/09/11 10:48:40;;;;;;;22.00;7.82;;;23.30;77.90;;;;;;5153234;28;20045;-73
2021/09/11 10:51:29;;;;;;;22.92;7.63;;;23.30;77.90;;;;;;5154202;28;20054;-74
2021/09/11 10:54:12;;;;;;;19.42;7.45;;;23.30;77.80;;;;;;5160284;28;20057;-74
2021/09/11 10:57:18;;;;;;;15.90;7.40;;;23.30;77.80;;;;;;5142799;28;20414;-73
2021/09/11 10:59:50;;;;;;;13.85;7.75;;;23.30;77.80;;;;;;5139710;28;20080;-73
2021/09/11 11:02:23;;;;;;;24.33;8.48;;;23.30;77.80;;;;;;5163951;28;20054;-74
2021/09/11 11:05:05;;;;;;;14.75;7.18;;;23.40;77.70;;;;;;5142430;28;20423;-73
2021/09/11 11:07:48;;;;;;;15.82;8.13;;;23.40;77.70;;;;;;5163788;28;20061;-74
2021/09/11 11:10:22;;;;;;;16.63;7.72;;;23.40;77.70;;;;;;5161529;28;20486;-73
2021/09/11 11:12:55;;;;;;;18.83;7.07;;;23.40;77.60;;;;;;5159692;28;20418;-73
2021/09/11 11:15:28;;;;;;;13.63;7.03;;;23.40;77.50;;;;;;5158048;28;20050;-73
2021/09/11 11:18:02;;;;;;;16.25;7.60;;;23.50;77.50;;;;;;5156680;28;20060;-73
2021/09/11 11:20:34;;;;;;;12.68;7.25;;;23.50;77.30;;;;;;5152601;28;20498;-72
2021/09/11 11:23:06;;;;;;;16.23;7.15;;;23.50;77.10;;;;;;5160391;28;20046;-73
2021/09/11 11:25:39;;;;;;;15.70;7.18;;;23.50;76.90;;;;;;5159918;28;20053;-73
2021/09/11 11:28:14;;;;;;;12.32;7.03;;;23.50;76.70;;;;;;5157339;28;20519;-74
2021/09/11 11:30:50;;;;;;;11.57;6.78;;;23.60;76.60;;;;;;5154394;28;20069;-73
2021/09/11 11:33:22;;;;;;;19.48;7.05;;;23.60;76.40;;;;;;5159763;28;20385;-72
2021/09/11 11:36:03;;;;;;;14.98;7.47;;;23.60;76.30;;;;;;5159938;28;20050;-73
2021/09/11 11:38:36;;;;;;;13.93;6.93;;;23.60;76.40;;;;;;5167965;28;20057;-73
2021/09/11 11:41:08;;;;;;;15.48;6.90;;;23.60;76.30;;;;;;5147104;28;20443;-72
2021/09/11 11:43:41;;;;;;;19.70;8.40;;;23.70;76.50;;;;;;5165945;28;20049;-73
2021/09/11 11:46:15;;;;;;;19.60;8.50;;;23.70;76.50;;;;;;5167182;28;20554;-72
2021/09/11 11:48:48;;;;;;;12.65;6.70;;;23.70;76.60;;;;;;5163124;28;20137;-73
2021/09/11 11:51:20;;;;;;;12.40;6.70;;;23.80;76.60;;;;;;5170088;28;20053;-73
2021/09/11 11:53:53;;;;;;;12.40;6.72;;;23.80;76.50;;;;;;5161055;28;20041;-73
2021/09/11 11:56:25;;;;;;;10.57;6.75;;;23.90;76.60;;;;;;5166470;28;20050;-73
2021/09/11 11:59:00;;;;;;;11.57;6.93;;;23.90;76.60;;;;;;5165429;28;20042;-74
2021/09/11 12:01:33;;;;;;;13.32;7.45;;;23.90;76.40;;;;;;5157858;28;20061;-73
2021/09/11 12:04:17;;;;;;;16.25;6.60;;;23.90;76.30;;;;;;5164517;28;20054;-73
2021/09/11 12:06:52;;;;;;;11.38;6.53;;;23.90;76.00;;;;;;5159237;28;20046;-74
2021/09/11 12:09:25;;;;;;;15.25;6.47;;;24.00;75.90;;;;;;5167254;28;20042;-73
2021/09/11 12:12:11;;;;;;;10.60;5.90;;;24.00;75.70;;;;;;5161344;28;20061;-74
2021/09/11 12:14:46;;;;;;;14.38;6.80;;;24.00;75.40;;;;;;5122867;28;20068;-73
2021/09/11 12:17:19;;;;;;;9.57;7.00;;;24.10;75.30;;;;;;5158864;28;20057;-74
2021/09/11 12:19:51;;;;;;;10.27;6.18;;;24.00;75.00;;;;;;5162071;28;20065;-74
2021/09/11 12:22:24;;;;;;;8.65;6.20;;;24.00;74.80;;;;;;5159283;28;20404;-73
2021/09/11 12:25:00;;;;;;;9.23;6.10;;;24.00;74.70;;;;;;5154779;28;20037;-72
2021/09/11 12:27:32;;;;;;;9.75;6.22;;;24.00;74.60;;;;;;5159550;28;20046;-73
2021/09/11 12:30:07;;;;;;;11.10;6.63;;;24.00;74.50;;;;;;5156525;28;20818;-73
2021/09/11 12:32:49;;;;;;;7.82;6.70;;;24.00;74.40;;;;;;5154514;28;20109;-73
2021/09/11 12:35:28;;;;;;;11.90;5.78;;;24.00;74.10;;;;;;5163845;28;20412;-73
2021/09/11 12:38:00;;;;;;;9.32;6.22;;;24.00;74.10;;;;;;5164602;28;20423;-73
2021/09/11 12:40:33;;;;;;;9.55;6.00;;;24.00;74.20;;;;;;5152981;28;20058;-73
2021/09/11 12:43:05;;;;;;;13.95;6.45;;;24.00;74.40;;;;;;5170146;28;20050;-74
2021/09/11 12:45:38;;;;;;;14.98;6.07;;;24.00;74.40;;;;;;5170307;28;20042;-74
2021/09/11 12:48:10;;;;;;;9.87;6.17;;;24.00;74.50;;;;;;5170945;28;20392;-74
2021/09/11 12:50:42;;;;;;;11.02;6.25;;;24.00;74.60;;;;;;5160411;28;20852;-72
2021/09/11 12:53:15;;;;;;;14.90;6.65;;;24.00;74.70;;;;;;5161887;28;20046;-72
2021/09/11 12:55:47;;;;;;;11.80;5.80;;;23.90;74.80;;;;;;5166523;28;20045;-74
2021/09/11 12:58:20;;;;;;;10.98;7.15;;;23.90;74.90;;;;;;5164041;28;20045;-74
2021/09/11 13:00:52;;;;;;;9.48;6.22;;;23.90;74.90;;;;;;5168189;28;20064;-74
2021/09/11 13:03:25;;;;;;;12.38;6.28;;;23.90;75.70;;;;;;5170385;28;20050;-74
2021/09/11 13:05:58;;;;;;;11.95;6.35;;;23.90;75.10;;;;;;5144139;28;20054;-73
2021/09/11 13:08:31;;;;;;;12.18;6.28;;;23.90;75.20;;;;;;5165473;28;20050;-73
2021/09/11 13:11:03;;;;;;;14.75;6.22;;;23.90;75.40;;;;;;5163338;28;20058;-74